createdAt,value
2024-03-10T00:01:32.320Z,5
2024-03-10T00:03:33.449Z,5
2024-03-10T00:05:34.506Z,5
2024-03-10T00:07:35.081Z,5
2024-03-10T00:09:36.172Z,5
2024-03-10T00:11:37.214Z,5
2024-03-10T00:13:38.048Z,5
2024-03-10T00:15:39.248Z,5
2024-03-10T00:17:40.223Z,5
2024-03-10T00:19:41.112Z,5
2024-03-10T00:21:42.137Z,5
2024-03-10T00:23:43.186Z,5
2024-03-10T00:25:44.145Z,5
2024-03-10T00:27:45.187Z,5
2024-03-10T00:29:46.069Z,5
2024-03-10T00:31:47.125Z,5
2024-03-10T00:33:48.115Z,5
2024-03-10T00:35:49.684Z,5
2024-03-10T00:37:50.072Z,5
2024-03-10T00:39:51.166Z,5
2024-03-10T00:41:52.197Z,5
2024-03-10T00:43:53.228Z,5
2024-03-10T00:45:54.061Z,5
2024-03-10T00:47:55.132Z,6
2024-03-10T00:49:56.172Z,6
2024-03-10T00:51:57.246Z,6
2024-03-10T00:53:58.031Z,6
2024-03-10T00:55:59.237Z,5
2024-03-10T00:58:00.055Z,5
2024-03-10T01:00:01.069Z,5
2024-03-10T01:02:02.056Z,5
2024-03-10T01:04:03.132Z,5
2024-03-10T01:06:04.366Z,5
2024-03-10T01:08:05.712Z,5
2024-03-10T01:10:06.239Z,5
2024-03-10T01:12:07.394Z,5
2024-03-10T01:14:08.071Z,5
2024-03-10T01:16:09.079Z,5
2024-03-10T01:18:10.221Z,5
2024-03-10T01:20:11.139Z,5
2024-03-10T01:22:12.108Z,5
2024-03-10T01:24:13.565Z,5
2024-03-10T01:26:14.111Z,5
2024-03-10T01:28:15.181Z,5
2024-03-10T01:30:16.032Z,5
2024-03-10T01:32:17.162Z,5
2024-03-10T01:34:18.125Z,5
2024-03-10T01:36:19.093Z,5
2024-03-10T01:38:20.388Z,5
2024-03-10T01:40:21.438Z,5
2024-03-10T01:42:22.313Z,5
2024-03-10T01:44:23.402Z,5
2024-03-10T01:46:24.082Z,5
2024-03-10T01:48:25.076Z,5
2024-03-10T01:50:26.342Z,5
2024-03-10T01:52:27.059Z,5
2024-03-10T01:54:28.161Z,5
2024-03-10T01:56:29.159Z,5
2024-03-10T01:58:30.151Z,5
2024-03-10T02:00:31.093Z,5
2024-03-10T02:02:32.234Z,5
2024-03-10T02:04:33.176Z,5
2024-03-10T02:06:34.032Z,5
2024-03-10T02:08:35.113Z,5
2024-03-10T02:10:36.163Z,5
2024-03-10T02:12:37.027Z,5
2024-03-10T02:14:38.033Z,5
2024-03-10T02:16:39.200Z,5
2024-03-10T02:18:40.122Z,5
2024-03-10T02:20:41.071Z,5
2024-03-10T02:22:42.793Z,5
2024-03-10T02:24:43.071Z,5
2024-03-10T02:26:44.499Z,5
2024-03-10T02:28:45.117Z,5
2024-03-10T02:30:46.170Z,5
2024-03-10T02:32:47.124Z,5
2024-03-10T02:34:48.286Z,5
2024-03-10T02:36:49.098Z,5
2024-03-10T02:38:50.066Z,5
2024-03-10T02:40:51.257Z,5
2024-03-10T02:42:52.059Z,5
2024-03-10T02:44:53.077Z,5
2024-03-10T02:46:54.078Z,5
2024-03-10T02:48:55.089Z,5
2024-03-10T02:50:55.987Z,5
2024-03-10T02:52:57.257Z,5
2024-03-10T02:54:57.940Z,5
2024-03-10T02:56:59.136Z,5
2024-03-10T02:59:00.233Z,5
2024-03-10T03:01:01.157Z,5
2024-03-10T03:03:02.296Z,5
2024-03-10T03:05:03.213Z,5
2024-03-10T03:07:04.143Z,5
2024-03-10T03:09:04.975Z,5
2024-03-10T03:11:06.203Z,5
2024-03-10T03:13:07.032Z,5
2024-03-10T03:15:08.029Z,5
2024-03-10T03:17:09.383Z,5
2024-03-10T03:19:10.039Z,5
2024-03-10T03:21:11.074Z,5
2024-03-10T03:23:12.287Z,5
2024-03-10T03:25:13.064Z,5
2024-03-10T03:27:14.034Z,5
2024-03-10T03:29:15.194Z,5
2024-03-10T03:31:16.114Z,5
2024-03-10T03:33:17.189Z,5
2024-03-10T03:35:18.729Z,5
2024-03-10T03:37:19.118Z,5
2024-03-10T03:39:20.021Z,5
2024-03-10T03:41:21.631Z,5
2024-03-10T03:43:22.129Z,5
2024-03-10T03:45:23.141Z,5
2024-03-10T03:47:24.555Z,5
2024-03-10T03:49:25.239Z,5
2024-03-10T03:51:26.053Z,5
2024-03-10T03:53:27.195Z,5
2024-03-10T03:55:28.106Z,5
2024-03-10T03:57:29.039Z,5
2024-03-10T03:59:30.176Z,5
2024-03-10T04:01:31.243Z,5
2024-03-10T04:03:32.118Z,5
2024-03-10T04:05:33.229Z,5
2024-03-10T04:07:34.123Z,5
2024-03-10T04:09:35.033Z,5
2024-03-10T04:11:36.349Z,5
2024-03-10T04:13:37.077Z,5
2024-03-10T04:15:38.153Z,5
2024-03-10T04:17:39.323Z,5
2024-03-10T04:19:40.098Z,5
2024-03-10T04:21:41.076Z,5
2024-03-10T04:23:42.040Z,5
2024-03-10T04:25:43.053Z,5
2024-03-10T04:27:44.538Z,5
2024-03-10T04:29:45.096Z,5
2024-03-10T04:31:46.138Z,5
2024-03-10T04:33:48.375Z,5
2024-03-10T04:35:48.123Z,5
2024-03-10T04:37:49.521Z,5
2024-03-10T04:39:49.955Z,5
2024-03-10T04:41:51.617Z,5
2024-03-10T04:43:52.226Z,5
2024-03-10T04:45:53.033Z,5
2024-03-10T04:47:54.265Z,5
2024-03-10T04:49:55.053Z,5
2024-03-10T04:51:56.245Z,5
2024-03-10T04:53:57.086Z,5
2024-03-10T04:55:58.086Z,5
2024-03-10T04:57:59.018Z,5
2024-03-10T05:00:00.056Z,5
2024-03-10T05:02:01.115Z,5
2024-03-10T05:04:02.170Z,5
2024-03-10T05:06:02.997Z,5
2024-03-10T05:08:04.267Z,5
2024-03-10T05:10:05.205Z,5
2024-03-10T05:12:06.255Z,5
2024-03-10T05:14:07.097Z,5
2024-03-10T05:16:08.107Z,5
2024-03-10T05:18:09.137Z,5
2024-03-10T05:20:10.132Z,5
2024-03-10T05:22:11.173Z,5
2024-03-10T05:24:12.156Z,5
2024-03-10T05:26:13.442Z,5
2024-03-10T05:28:14.058Z,5
2024-03-10T05:30:15.206Z,5
2024-03-10T05:32:16.253Z,5
2024-03-10T05:34:17.046Z,5
2024-03-10T05:36:18.093Z,5
2024-03-10T05:38:19.113Z,5
2024-03-10T05:40:20.230Z,5
2024-03-10T05:42:21.319Z,5
2024-03-10T05:44:22.184Z,5
2024-03-10T05:46:23.066Z,5
2024-03-10T05:48:24.200Z,5
2024-03-10T05:50:25.238Z,5
2024-03-10T05:52:26.340Z,5
2024-03-10T05:54:27.140Z,5
2024-03-10T05:56:28.271Z,5
2024-03-10T05:58:29.086Z,5
2024-03-10T06:00:30.010Z,5
2024-03-10T06:02:31.118Z,5
2024-03-10T06:04:32.172Z,6
2024-03-10T06:06:33.039Z,6
2024-03-10T06:08:34.162Z,6
2024-03-10T06:10:35.036Z,6
2024-03-10T06:12:36.062Z,7
2024-03-10T06:16:38.042Z,7
2024-03-10T06:18:39.077Z,7
2024-03-10T06:20:40.184Z,7
2024-03-10T06:22:41.021Z,7
2024-03-10T06:24:42.266Z,7
2024-03-10T06:26:46.143Z,7
2024-03-10T06:28:44.040Z,7
2024-03-10T06:30:44.999Z,7
2024-03-10T06:32:46.052Z,8
2024-03-10T06:34:47.604Z,8
2024-03-10T06:36:48.137Z,9
2024-03-10T06:38:49.026Z,9
2024-03-10T06:40:50.316Z,9
2024-03-10T06:42:51.242Z,9
2024-03-10T06:44:52.102Z,9
2024-03-10T06:48:54.088Z,10
2024-03-10T06:50:55.172Z,10
2024-03-10T06:52:56.188Z,10
2024-03-10T06:54:57.053Z,11
2024-03-10T06:56:58.004Z,11
2024-03-10T06:58:59.116Z,12
2024-03-10T07:01:00.059Z,13
2024-03-10T07:03:01.311Z,13
2024-03-10T07:05:02.338Z,13
2024-03-10T07:07:03.137Z,14
2024-03-10T07:09:04.021Z,14
2024-03-10T07:11:05.153Z,15
2024-03-10T07:13:06.037Z,15
2024-03-10T07:15:07.163Z,15
2024-03-10T07:17:08.037Z,15
2024-03-10T07:19:09.018Z,14
2024-03-10T07:21:10.096Z,14
2024-03-10T07:23:11.093Z,14
2024-03-10T07:25:11.969Z,14
2024-03-10T07:27:13.144Z,14
2024-03-10T07:29:14.079Z,14
2024-03-10T07:31:15.104Z,14
2024-03-10T07:33:16.129Z,14
2024-03-10T07:35:17.084Z,14
2024-03-10T07:37:18.542Z,15
2024-03-10T07:39:18.984Z,15
2024-03-10T07:41:20.199Z,16
2024-03-10T07:43:21.105Z,16
2024-03-10T07:45:22.198Z,16
2024-03-10T07:47:23.397Z,16
2024-03-10T07:49:24.149Z,16
2024-03-10T07:53:26.232Z,16
2024-03-10T07:55:27.001Z,16
2024-03-10T07:57:27.969Z,17
2024-03-10T07:59:29.511Z,17
2024-03-10T08:01:30.232Z,18
2024-03-10T08:03:30.940Z,18
2024-03-10T08:05:32.561Z,18
2024-03-10T08:07:32.997Z,18
2024-03-10T08:09:34.015Z,17
2024-03-10T08:11:35.100Z,17
2024-03-10T08:13:35.935Z,16
2024-03-10T08:15:36.933Z,15
2024-03-10T08:17:38.094Z,14
2024-03-10T08:19:39.085Z,14
2024-03-10T08:21:39.973Z,14
2024-03-10T08:23:41.050Z,14
2024-03-10T08:25:42.010Z,14
2024-03-10T08:27:43.081Z,14
2024-03-10T08:29:44.029Z,14
2024-03-10T08:31:45.020Z,14
2024-03-10T08:33:45.946Z,14
2024-03-10T08:35:47.037Z,14
2024-03-10T08:37:48.269Z,13
2024-03-10T08:39:49.158Z,13
2024-03-10T08:41:50.016Z,13
2024-03-10T08:43:51.119Z,13
2024-03-10T08:45:52.096Z,12
2024-03-10T08:47:53.003Z,12
2024-03-10T08:49:54.158Z,12
2024-03-10T08:51:54.882Z,12
2024-03-10T08:53:55.981Z,12
2024-03-10T08:55:57.385Z,12
2024-03-10T08:57:57.930Z,12
2024-03-10T08:59:59.214Z,12
2024-03-10T09:02:00.031Z,12
2024-03-10T09:04:00.949Z,12
2024-03-10T09:06:02.263Z,12
2024-03-10T09:08:03.076Z,12
2024-03-10T09:10:03.975Z,12
2024-03-10T09:12:05.314Z,12
2024-03-10T09:14:05.968Z,12
2024-03-10T09:16:06.950Z,12
2024-03-10T09:18:07.902Z,12
2024-03-10T09:20:09.108Z,12
2024-03-10T09:22:09.988Z,12
2024-03-10T09:24:11.022Z,12
2024-03-10T09:26:12.157Z,12
2024-03-10T09:28:12.894Z,12
2024-03-10T09:30:14.091Z,12
2024-03-10T09:32:15.023Z,12
2024-03-10T09:34:15.959Z,12
2024-03-10T09:36:16.921Z,12
2024-03-10T09:38:18.036Z,12
2024-03-10T09:40:18.925Z,12
2024-03-10T09:42:19.971Z,12
2024-03-10T09:44:21.090Z,13
2024-03-10T09:46:21.949Z,13
2024-03-10T09:48:23.150Z,13
2024-03-10T09:50:24.288Z,13
2024-03-10T09:52:24.928Z,14
2024-03-10T09:54:25.841Z,14
2024-03-10T09:56:27.326Z,14
2024-03-10T09:58:39.941Z,14
2024-03-10T10:00:28.996Z,15
2024-03-10T10:02:30.012Z,15
2024-03-10T10:04:31.054Z,15
2024-03-10T10:06:32.153Z,15
2024-03-10T10:08:33.002Z,15
2024-03-10T10:10:33.935Z,16
2024-03-10T10:12:34.939Z,16
2024-03-10T10:14:36.051Z,16
2024-03-10T10:16:50.269Z,16
2024-03-10T10:18:54.413Z,16
2024-03-10T10:20:38.980Z,16
2024-03-10T10:22:40.314Z,16
2024-03-10T10:24:40.919Z,16
2024-03-10T10:26:42.369Z,16
2024-03-10T10:28:42.925Z,16
2024-03-10T10:30:43.865Z,17
2024-03-10T10:32:45.321Z,17
2024-03-10T10:34:45.916Z,18
2024-03-10T10:36:46.890Z,19
2024-03-10T10:38:48.324Z,20
2024-03-10T10:40:49.617Z,21
2024-03-10T10:43:04.824Z,21
2024-03-10T10:44:50.932Z,21
2024-03-10T10:46:52.011Z,20
2024-03-10T10:48:53.006Z,20
2024-03-10T10:50:53.894Z,20
2024-03-10T10:52:54.854Z,20
2024-03-10T10:54:55.871Z,19
2024-03-10T10:56:57.178Z,19
2024-03-10T10:58:58.010Z,19
2024-03-10T11:00:58.883Z,18
2024-03-10T11:02:59.927Z,18
2024-03-10T11:05:01.144Z,18
2024-03-10T11:07:01.928Z,18
2024-03-10T11:09:03.038Z,18
2024-03-10T11:11:04.097Z,18
2024-03-10T11:13:04.878Z,18
2024-03-10T11:15:05.908Z,18
2024-03-10T11:17:07.032Z,19
2024-03-10T11:19:07.950Z,19
2024-03-10T11:21:08.921Z,20
2024-03-10T11:23:09.954Z,20
2024-03-10T11:25:11.037Z,20
2024-03-10T11:27:11.850Z,20
2024-03-10T11:29:12.965Z,20
2024-03-10T11:31:13.834Z,20
2024-03-10T11:33:15.151Z,19
2024-03-10T11:35:16.229Z,19
2024-03-10T11:37:16.811Z,18
2024-03-10T11:39:17.934Z,18
2024-03-10T11:41:18.971Z,17
2024-03-10T11:43:19.899Z,17
2024-03-10T11:45:20.896Z,17
2024-03-10T11:47:21.799Z,17
2024-03-10T11:49:22.941Z,17
2024-03-10T11:51:23.976Z,17
2024-03-10T11:53:25.249Z,17
2024-03-10T11:55:26.121Z,17
2024-03-10T11:57:26.919Z,17
2024-03-10T11:59:27.920Z,17
2024-03-10T12:01:28.983Z,18
2024-03-10T12:03:29.842Z,18
2024-03-10T12:05:30.942Z,18
2024-03-10T12:07:31.920Z,18
2024-03-10T12:11:34.051Z,18
2024-03-10T12:13:34.812Z,17
2024-03-10T12:15:35.816Z,17
2024-03-10T12:17:37.040Z,17
2024-03-10T12:19:38.248Z,17
2024-03-10T12:21:39.096Z,17
2024-03-10T12:23:40.417Z,16
2024-03-10T12:25:40.884Z,16
2024-03-10T12:27:41.755Z,16
2024-03-10T12:29:43.131Z,16
2024-03-10T12:31:43.771Z,15
2024-03-10T12:33:44.843Z,15
2024-03-10T12:35:45.876Z,15
2024-03-10T12:37:46.779Z,14
2024-03-10T12:39:48.177Z,14
2024-03-10T12:41:48.751Z,14
2024-03-10T12:43:49.865Z,14
2024-03-10T12:45:50.764Z,13
2024-03-10T12:47:52.616Z,13
2024-03-10T12:51:54.248Z,13
2024-03-10T12:53:58.045Z,13
2024-03-10T12:55:55.831Z,13
2024-03-10T12:57:56.811Z,13
2024-03-10T12:59:57.762Z,13
2024-03-10T13:01:58.850Z,13
2024-03-10T13:03:59.777Z,14
2024-03-10T13:06:01.508Z,14
2024-03-10T13:08:03.092Z,14
2024-03-10T13:10:02.869Z,14
2024-03-10T13:12:04.036Z,13
2024-03-10T13:14:04.885Z,13
2024-03-10T13:16:05.830Z,13
2024-03-10T13:18:06.863Z,13
2024-03-10T13:20:07.877Z,13
2024-03-10T13:22:08.657Z,13
2024-03-10T13:24:09.826Z,13
2024-03-10T13:26:10.784Z,13
2024-03-10T13:30:12.720Z,13
2024-03-10T13:32:14.198Z,13
2024-03-10T13:34:14.861Z,13
2024-03-10T13:36:18.633Z,13
2024-03-10T13:38:16.755Z,14
2024-03-10T13:40:17.858Z,14
2024-03-10T13:42:18.808Z,14
2024-03-10T13:44:19.840Z,14
2024-03-10T13:46:20.786Z,14
2024-03-10T13:48:21.922Z,14
2024-03-10T13:50:22.840Z,14
2024-03-10T13:52:23.827Z,13
2024-03-10T13:54:25.827Z,13
2024-03-10T13:56:25.805Z,13
2024-03-10T13:58:26.818Z,13
2024-03-10T14:00:27.722Z,13
2024-03-10T14:02:28.767Z,13
2024-03-10T14:04:29.795Z,13
2024-03-10T14:06:30.827Z,13
2024-03-10T14:08:32.905Z,13
2024-03-10T14:10:32.760Z,13
2024-03-10T14:12:33.938Z,13
2024-03-10T14:14:34.751Z,13
2024-03-10T14:16:35.713Z,13
2024-03-10T14:18:36.898Z,13
2024-03-10T14:20:38.350Z,13
2024-03-10T14:22:38.742Z,13
2024-03-10T14:24:39.763Z,13
2024-03-10T14:26:40.789Z,13
2024-03-10T14:28:41.710Z,13
2024-03-10T14:30:42.670Z,13
2024-03-10T14:32:43.861Z,13
2024-03-10T14:34:44.801Z,13
2024-03-10T14:36:45.851Z,13
2024-03-10T14:38:46.969Z,13
2024-03-10T14:40:47.836Z,13
2024-03-10T14:42:49.299Z,13
2024-03-10T14:44:49.796Z,13
2024-03-10T14:46:50.693Z,13
2024-03-10T14:48:52.321Z,13
2024-03-10T14:50:52.729Z,13
2024-03-10T14:52:54.113Z,12
2024-03-10T14:54:57.434Z,12
2024-03-10T14:56:55.751Z,12
2024-03-10T14:58:56.818Z,12
2024-03-10T15:01:01.271Z,12
2024-03-10T15:02:58.729Z,12
2024-03-10T15:04:59.880Z,12
2024-03-10T15:07:02.379Z,12
2024-03-10T15:09:01.772Z,12
2024-03-10T15:11:02.750Z,12
2024-03-10T15:13:04.038Z,12
2024-03-10T15:15:04.691Z,12
2024-03-10T15:17:05.748Z,12
2024-03-10T15:19:07.190Z,12
2024-03-10T15:21:07.875Z,12
2024-03-10T15:23:09.173Z,12
2024-03-10T15:25:09.737Z,12
2024-03-10T15:27:10.741Z,12
2024-03-10T15:29:11.760Z,12
2024-03-10T15:31:12.687Z,12
2024-03-10T15:33:13.869Z,12
2024-03-10T15:35:14.823Z,12
2024-03-10T15:37:15.664Z,12
2024-03-10T15:39:16.661Z,12
2024-03-10T15:41:17.831Z,12
2024-03-10T15:43:18.778Z,12
2024-03-10T15:45:19.785Z,12
2024-03-10T15:47:20.834Z,12
2024-03-10T15:49:21.735Z,12
2024-03-10T15:51:22.643Z,11
2024-03-10T15:53:23.860Z,11
2024-03-10T15:55:25.060Z,11
2024-03-10T15:57:25.752Z,11
2024-03-10T15:59:26.731Z,11
2024-03-10T16:01:27.891Z,11
2024-03-10T16:03:28.667Z,11
2024-03-10T16:05:29.781Z,11
2024-03-10T16:07:30.830Z,11
2024-03-10T16:09:31.762Z,11
2024-03-10T16:11:32.913Z,11
2024-03-10T16:13:33.674Z,11
2024-03-10T16:15:34.664Z,11
2024-03-10T16:17:36.365Z,10
2024-03-10T16:19:36.636Z,10
2024-03-10T16:21:37.634Z,10
2024-03-10T16:23:38.871Z,10
2024-03-10T16:25:39.712Z,10
2024-03-10T16:27:40.685Z,10
2024-03-10T16:29:41.987Z,10
2024-03-10T16:31:42.657Z,10
2024-03-10T16:33:43.631Z,10
2024-03-10T16:35:44.679Z,10
2024-03-10T16:37:50.511Z,10
2024-03-10T16:39:46.826Z,10
2024-03-10T16:41:47.884Z,10
2024-03-10T16:43:50.731Z,10
2024-03-10T16:45:49.850Z,10
2024-03-10T16:47:50.868Z,10
2024-03-10T16:49:51.758Z,10
2024-03-10T16:51:52.686Z,9
2024-03-10T16:53:53.708Z,9
2024-03-10T16:55:55.004Z,9
2024-03-10T16:57:56.133Z,9
2024-03-10T16:59:56.742Z,9
2024-03-10T17:01:57.698Z,9
2024-03-10T17:03:58.607Z,9
2024-03-10T17:05:59.650Z,9
2024-03-10T17:08:00.669Z,9
2024-03-10T17:10:01.751Z,9
2024-03-10T17:12:02.865Z,9
2024-03-10T17:14:03.800Z,9
2024-03-10T17:16:04.978Z,9
2024-03-10T17:18:05.984Z,9
2024-03-10T17:20:06.836Z,9
2024-03-10T17:22:07.717Z,9
2024-03-10T17:24:08.752Z,9
2024-03-10T17:26:09.709Z,9
2024-03-10T17:28:10.830Z,9
2024-03-10T17:30:11.678Z,9
2024-03-10T17:32:12.778Z,9
2024-03-10T17:34:13.708Z,9
2024-03-10T17:36:14.636Z,9
2024-03-10T17:38:15.763Z,9
2024-03-10T17:40:16.609Z,9
2024-03-10T17:42:17.570Z,9
2024-03-10T17:44:18.730Z,8
2024-03-10T17:48:20.742Z,8
2024-03-10T17:50:21.867Z,8
2024-03-10T17:52:22.640Z,8
2024-03-10T17:54:23.623Z,8
2024-03-10T17:56:24.744Z,8
2024-03-10T17:58:25.821Z,8
2024-03-10T18:00:26.657Z,8
2024-03-10T18:02:28.231Z,8
2024-03-10T18:04:28.672Z,8
2024-03-10T18:06:29.640Z,8
2024-03-10T18:08:30.788Z,8
2024-03-10T18:10:31.657Z,8
2024-03-10T18:12:32.742Z,8
2024-03-10T18:14:34.130Z,8
2024-03-10T18:16:34.641Z,8
2024-03-10T18:18:35.721Z,8
2024-03-10T18:20:36.919Z,8
2024-03-10T18:22:37.645Z,8
2024-03-10T18:24:38.636Z,8
2024-03-10T18:26:39.716Z,8
2024-03-10T18:28:40.701Z,8
2024-03-10T18:30:41.965Z,8
2024-03-10T18:32:42.995Z,8
2024-03-10T18:34:47.210Z,8
2024-03-10T18:36:44.684Z,8
2024-03-10T18:38:45.960Z,8
2024-03-10T18:40:46.665Z,8
2024-03-10T18:42:47.640Z,8
2024-03-10T18:44:48.860Z,8
2024-03-10T18:46:49.582Z,8
2024-03-10T18:48:50.802Z,8
2024-03-10T18:51:02.394Z,8
2024-03-10T18:52:52.722Z,8
2024-03-10T18:54:53.982Z,8
2024-03-10T18:56:54.676Z,8
2024-03-10T18:58:55.710Z,8
2024-03-10T19:00:56.710Z,8
2024-03-10T19:02:57.688Z,8
2024-03-10T19:04:58.677Z,8
2024-03-10T19:06:59.684Z,8
2024-03-10T19:09:00.835Z,8
2024-03-10T19:11:01.816Z,8
2024-03-10T19:13:02.816Z,8
2024-03-10T19:15:03.683Z,8
2024-03-10T19:17:04.846Z,8
2024-03-10T19:19:05.597Z,8
2024-03-10T19:21:06.765Z,8
2024-03-10T19:23:07.726Z,8
2024-03-10T19:25:08.581Z,8
2024-03-10T19:27:09.776Z,8
2024-03-10T19:29:10.736Z,8
2024-03-10T19:31:11.695Z,8
2024-03-10T19:33:12.693Z,8
2024-03-10T19:35:13.688Z,8
2024-03-10T19:37:14.783Z,8
2024-03-10T19:39:15.740Z,8
2024-03-10T19:41:16.849Z,8
2024-03-10T19:43:17.686Z,8
2024-03-10T19:45:18.700Z,8
2024-03-10T19:47:19.675Z,8
2024-03-10T19:49:20.703Z,8
2024-03-10T19:51:21.741Z,8
2024-03-10T19:53:22.723Z,8
2024-03-10T19:55:23.579Z,8
2024-03-10T19:57:24.662Z,7
2024-03-10T19:59:25.659Z,7
2024-03-10T20:01:26.824Z,7
2024-03-10T20:03:27.973Z,7
2024-03-10T20:05:28.653Z,7
2024-03-10T20:07:29.629Z,7
2024-03-10T20:09:30.646Z,7
2024-03-10T20:11:31.829Z,7
2024-03-10T20:13:32.799Z,7
2024-03-10T20:15:33.603Z,7
2024-03-10T20:17:34.793Z,7
2024-03-10T20:19:35.587Z,7
2024-03-10T20:21:37.090Z,7
2024-03-10T20:23:38.385Z,7
2024-03-10T20:25:38.765Z,7
2024-03-10T20:27:39.640Z,7
2024-03-10T20:29:40.788Z,7
2024-03-10T20:31:41.589Z,7
2024-03-10T20:33:42.579Z,7
2024-03-10T20:35:43.717Z,7
2024-03-10T20:37:45.041Z,7
2024-03-10T20:39:45.726Z,7
2024-03-10T20:41:46.620Z,7
2024-03-10T20:43:47.898Z,7
2024-03-10T20:47:51.119Z,7
2024-03-10T20:49:50.519Z,7
2024-03-10T20:51:51.979Z,7
2024-03-10T20:53:52.742Z,7
2024-03-10T20:55:53.523Z,7
2024-03-10T20:57:54.591Z,7
2024-03-10T20:59:55.642Z,7
2024-03-10T21:01:56.589Z,7
2024-03-10T21:03:57.637Z,7
2024-03-10T21:05:59.054Z,7
2024-03-10T21:07:59.711Z,7
2024-03-10T21:10:00.813Z,7
2024-03-10T21:12:01.937Z,7
2024-03-10T21:14:02.635Z,7
2024-03-10T21:16:03.668Z,7
2024-03-10T21:18:04.938Z,7
2024-03-10T21:20:05.619Z,7
2024-03-10T21:22:06.557Z,7
2024-03-10T21:24:07.709Z,7
2024-03-10T21:26:09.015Z,7
2024-03-10T21:28:09.578Z,7
2024-03-10T21:30:10.616Z,7
2024-03-10T21:32:11.658Z,7
2024-03-10T21:34:12.667Z,7
2024-03-10T21:36:13.658Z,7
2024-03-10T21:38:14.620Z,7
2024-03-10T21:40:15.616Z,7
2024-03-10T21:42:16.933Z,7
2024-03-10T21:44:17.692Z,7
2024-03-10T21:46:18.594Z,7
2024-03-10T21:48:19.692Z,7
2024-03-10T21:50:20.827Z,7
2024-03-10T21:52:21.642Z,7
2024-03-10T21:54:22.634Z,7
2024-03-10T21:56:23.621Z,7
2024-03-10T21:58:24.997Z,7
2024-03-10T22:00:25.602Z,7
2024-03-10T22:02:26.689Z,7
2024-03-10T22:04:27.665Z,7
2024-03-10T22:06:28.713Z,7
2024-03-10T22:08:29.596Z,7
2024-03-10T22:10:30.708Z,7
2024-03-10T22:12:31.808Z,7
2024-03-10T22:14:32.648Z,7
2024-03-10T22:16:33.550Z,7
2024-03-10T22:18:35.251Z,7
2024-03-10T22:20:35.877Z,7
2024-03-10T22:22:36.546Z,7
2024-03-10T22:24:37.549Z,7
2024-03-10T22:26:38.649Z,7
2024-03-10T22:28:39.626Z,7
2024-03-10T22:30:40.644Z,7
2024-03-10T22:32:41.937Z,7
2024-03-10T22:34:42.708Z,7
2024-03-10T22:36:43.547Z,7
2024-03-10T22:38:44.614Z,7
2024-03-10T22:40:45.849Z,7
2024-03-10T22:42:46.670Z,7
2024-03-10T22:44:57.044Z,7
2024-03-10T22:46:48.532Z,7
2024-03-10T22:50:50.738Z,7
2024-03-10T22:52:51.584Z,7
2024-03-10T22:56:53.594Z,7
2024-03-10T22:58:54.502Z,7
2024-03-10T23:00:55.675Z,7
2024-03-10T23:02:56.596Z,7
2024-03-10T23:04:57.571Z,7
2024-03-10T23:06:58.623Z,7
2024-03-10T23:08:59.550Z,7
2024-03-10T23:11:00.856Z,7
2024-03-10T23:13:01.567Z,7
2024-03-10T23:15:02.647Z,7
2024-03-10T23:17:03.701Z,7
2024-03-10T23:19:04.533Z,7
2024-03-10T23:21:05.783Z,7
2024-03-10T23:23:06.882Z,7
2024-03-10T23:25:07.539Z,7
2024-03-10T23:27:09.548Z,7
2024-03-10T23:29:09.717Z,7
2024-03-10T23:31:10.522Z,7
2024-03-10T23:33:11.709Z,7
2024-03-10T23:35:12.869Z,7
2024-03-10T23:37:13.713Z,7
2024-03-10T23:39:14.586Z,7
2024-03-10T23:41:15.676Z,7
2024-03-10T23:43:16.586Z,7
2024-03-10T23:45:17.753Z,7
2024-03-10T23:47:18.635Z,7
2024-03-10T23:49:19.583Z,7
2024-03-10T23:51:20.625Z,7
2024-03-10T23:53:21.643Z,7
2024-03-10T23:55:22.626Z,7
2024-03-10T23:57:23.560Z,7
2024-03-10T23:59:24.763Z,7
